Time;durP1;ratioP1;P1;durP2;ratioP2;P2;SDS_P1;SDS_P2;PMS_P1;PMS_P2;Temp;Humidity;BMP_temperature;BMP_pressure;BME280_temperature;BME280_humidity;BME280_pressure;Samples;Min_cycle;Max_cycle;Signal;HPM_P1;HPM_P2
2022/01/28 00:00:29;;;;;;;22.50;4.28;;;;;;;4.15;100.00;102475.06;5029370;28;20444;-81
2022/01/28 00:03:06;;;;;;;25.52;4.68;;;;;;;4.14;100.00;102475.88;5066352;28;20036;-79
2022/01/28 00:05:37;;;;;;;24.95;5.03;;;;;;;4.14;100.00;102477.56;5057876;28;20409;-79
2022/01/28 00:08:07;;;;;;;35.20;5.57;;;;;;;4.16;100.00;102486.38;5063569;28;20032;-79
2022/01/28 00:10:39;;;;;;;31.88;6.22;;;;;;;4.18;100.00;102479.53;5066613;28;20041;-80
2022/01/28 00:15:51;;;;;;;21.15;4.20;;;;;;;4.22;100.00;102484.13;5082779;28;20079;-79
2022/01/28 00:40:19;;;;;;;16.15;3.72;;;;;;;4.06;100.00;102539.75;5060348;28;20486;-81
2022/01/28 00:42:48;;;;;;;16.08;4.25;;;;;;;4.02;100.00;102543.91;5050956;28;20059;-81
2022/01/28 00:45:16;;;;;;;26.60;4.45;;;;;;;4.01;100.00;102542.13;5033172;28;20394;-80
2022/01/28 00:47:53;;;;;;;30.35;5.45;;;;;;;4.01;100.00;102554.28;5059534;28;20478;-79
2022/01/28 00:50:21;;;;;;;17.13;3.80;;;;;;;4.02;100.00;102548.22;5087586;28;20055;-81
2022/01/28 00:52:50;;;;;;;14.25;3.20;;;;;;;4.04;100.00;102555.31;5076979;28;20052;-81
2022/01/28 00:55:22;;;;;;;21.98;3.75;;;;;;;4.07;100.00;102565.94;5043693;28;20049;-79
2022/01/28 00:57:50;;;;;;;13.75;3.65;;;;;;;4.06;100.00;102551.13;5059467;28;20040;-81
2022/01/28 01:00:19;;;;;;;21.48;3.97;;;;;;;4.05;100.00;102569.28;5025990;28;20067;-79
2022/01/28 01:02:49;;;;;;;24.80;5.03;;;;;;;4.03;100.00;102560.47;5051768;28;20056;-80
2022/01/28 01:05:18;;;;;;;20.87;4.23;;;;;;;4.02;100.00;102564.78;5067569;28;20055;-81
2022/01/28 01:07:46;;;;;;;27.50;4.90;;;;;;;4.02;100.00;102569.09;5046717;28;20029;-81
2022/01/28 01:10:15;;;;;;;24.20;4.90;;;;;;;4.01;100.00;102563.00;5053057;28;20056;-80
2022/01/28 01:12:46;;;;;;;24.30;4.03;;;;;;;4.02;100.00;102566.50;5073632;28;20044;-80
2022/01/28 01:15:19;;;;;;;27.65;5.25;;;;;;;4.01;100.00;102568.22;5075908;28;20044;-79
2022/01/28 01:23:21;;;;;;;29.63;5.03;;;;;;;3.95;100.00;102587.81;5037459;28;20502;-81
2022/01/28 01:28:21;;;;;;;36.95;6.40;;;;;;;3.88;100.00;102602.22;5039201;28;20033;-79
2022/01/28 01:30:51;;;;;;;30.60;5.28;;;;;;;3.87;100.00;102616.06;5021495;28;20037;-80
2022/01/28 01:33:20;;;;;;;21.38;5.38;;;;;;;3.88;100.00;102629.19;5022367;28;20036;-80
2022/01/28 01:35:49;;;;;;;26.98;4.55;;;;;;;3.88;100.00;102634.41;5038940;28;20055;-80
2022/01/28 01:38:26;;;;;;;26.73;5.60;;;;;;;3.92;100.00;102629.38;5038757;28;20037;-80
2022/01/28 01:40:58;;;;;;;16.42;3.65;;;;;;;3.96;100.00;102631.34;5039472;28;20143;-80
2022/01/28 01:43:53;;;;;;;18.52;3.30;;;;;;;4.02;100.00;102637.81;5007683;28;20053;-79
2022/01/28 01:54:25;;;;;;;21.20;3.75;;;;;;;4.26;100.00;102655.72;5008810;28;20419;-82
2022/01/28 01:56:55;;;;;;;26.93;5.60;;;;;;;4.29;100.00;102662.03;5023916;28;20052;-81
2022/01/28 01:59:24;;;;;;;22.30;4.88;;;;;;;4.33;100.00;102662.19;5040290;28;20299;-82
2022/01/28 02:01:52;;;;;;;25.80;4.85;;;;;;;4.37;100.00;102666.78;5042439;28;20048;-83
2022/01/28 02:04:21;;;;;;;24.08;5.18;;;;;;;4.38;100.00;102679.00;5004525;28;20041;-82
2022/01/28 02:06:50;;;;;;;19.52;4.70;;;;;;;4.41;100.00;102673.97;5026122;28;20047;-82
2022/01/28 02:09:19;;;;;;;21.15;5.40;;;;;;;4.43;100.00;102685.41;5039958;28;20406;-81
2022/01/28 02:11:49;;;;;;;26.83;5.07;;;;;;;4.44;100.00;102681.97;5037107;28;20045;-82
2022/01/28 02:14:18;;;;;;;24.52;4.93;;;;;;;4.47;100.00;102690.00;5003851;28;20048;-82
2022/01/28 02:16:46;;;;;;;23.23;5.30;;;;;;;4.52;100.00;102708.50;5038893;28;20052;-82
2022/01/28 02:19:17;;;;;;;34.05;5.68;;;;;;;4.56;100.00;102719.25;5024738;28;20525;-81
2022/01/28 02:21:50;;;;;;;28.35;4.30;;;;;;;4.59;100.00;102710.69;4997351;28;20071;-82
2022/01/28 02:24:25;;;;;;;33.70;5.75;;;;;;;4.63;100.00;102723.09;5025578;28;20053;-83
2022/01/28 02:26:54;;;;;;;31.95;5.20;;;;;;;4.67;100.00;102732.94;5036814;28;20053;-83
2022/01/28 02:29:31;;;;;;;35.58;5.05;;;;;;;4.68;100.00;102738.22;5012214;28;20060;-82
2022/01/28 02:32:02;;;;;;;27.33;4.90;;;;;;;4.72;100.00;102738.41;5033715;28;20060;-83
2022/01/28 02:34:30;;;;;;;30.40;6.28;;;;;;;4.72;100.00;102744.53;5029574;28;20044;-82
2022/01/28 02:36:59;;;;;;;26.25;5.28;;;;;;;4.72;100.00;102738.41;5024534;28;20052;-82
2022/01/28 02:39:29;;;;;;;32.47;5.00;;;;;;;4.73;100.00;102750.66;5044503;28;20053;-82
2022/01/28 02:42:06;;;;;;;27.50;5.78;;;;;;;4.72;100.00;102749.75;5042051;28;20060;-81
2022/01/28 02:47:11;;;;;;;28.33;4.50;;;;;;;4.74;100.00;102752.44;5026896;28;20049;-82
2022/01/28 02:49:42;;;;;;;25.92;4.82;;;;;;;4.74;100.00;102758.56;5042926;28;20052;-81
2022/01/28 02:52:19;;;;;;;29.40;4.60;;;;;;;4.76;100.00;102745.59;5039500;28;20037;-83
2022/01/28 02:54:49;;;;;;;24.38;4.57;;;;;;;4.77;100.00;102758.75;5022270;28;20064;-82
2022/01/28 02:57:24;;;;;;;20.33;4.10;;;;;;;4.78;100.00;102765.78;5006056;28;20049;-81
2022/01/28 02:59:53;;;;;;;19.60;4.28;;;;;;;4.78;100.00;102771.00;5035522;28;20057;-81
2022/01/28 03:02:21;;;;;;;21.58;4.82;;;;;;;4.80;100.00;102787.66;5029286;28;20048;-82
2022/01/28 03:07:28;;;;;;;20.67;4.53;;;;;;;4.81;100.00;102788.56;5028385;28;20044;-83
2022/01/28 03:10:14;;;;;;;24.00;5.30;;;;;;;4.81;100.00;102785.94;5027885;28;20033;-81
2022/01/28 03:15:32;;;;;;;19.35;4.25;;;;;;;4.77;100.00;102784.88;5044700;28;20048;-81
2022/01/28 03:20:41;;;;;;;22.30;3.65;;;;;;;4.75;100.00;102780.38;5042933;28;20037;-82
2022/01/28 03:23:10;;;;;;;28.55;6.15;;;;;;;4.76;100.00;102788.28;5044031;28;20049;-81
2022/01/28 03:25:43;;;;;;;18.17;3.40;;;;;;;4.75;100.00;102796.94;5043511;28;20056;-82
2022/01/28 03:28:14;;;;;;;16.13;4.75;;;;;;;4.76;100.00;102803.06;5016612;28;20049;-81
2022/01/28 03:30:42;;;;;;;15.35;2.90;;;;;;;4.77;100.00;102811.00;5022340;28;20402;-81
2022/01/28 03:33:11;;;;;;;20.63;4.22;;;;;;;4.78;100.00;102793.59;5023853;28;20041;-81
2022/01/28 03:35:39;;;;;;;16.85;4.07;;;;;;;4.81;100.00;102804.22;5007888;28;20048;-83
2022/01/28 03:38:12;;;;;;;19.75;3.90;;;;;;;4.82;100.00;102816.47;5038713;28;20498;-82
2022/01/28 03:40:42;;;;;;;17.90;4.18;;;;;;;4.84;100.00;102822.72;5008475;28;20042;-82
2022/01/28 03:43:11;;;;;;;23.65;4.35;;;;;;;4.85;100.00;102834.94;5040070;28;20037;-81
2022/01/28 03:45:42;;;;;;;20.48;4.45;;;;;;;4.86;100.00;102832.44;5025448;28;20052;-81
2022/01/28 03:48:13;;;;;;;23.23;4.13;;;;;;;4.86;100.00;102837.66;5013708;28;20041;-82
2022/01/28 03:50:45;;;;;;;22.40;4.05;;;;;;;4.84;100.00;102844.50;5026326;28;20048;-82
2022/01/28 03:53:13;;;;;;;22.33;4.82;;;;;;;4.84;100.00;102848.84;5007546;28;20041;-82
2022/01/28 03:55:43;;;;;;;18.95;4.75;;;;;;;4.82;100.00;102838.28;4992603;28;20041;-83
2022/01/28 03:58:14;;;;;;;23.85;4.18;;;;;;;4.80;100.00;102836.38;5026452;28;20048;-81
2022/01/28 04:00:43;;;;;;;20.15;4.15;;;;;;;4.78;100.00;102853.69;5005078;28;20056;-81
2022/01/28 04:11:25;;;;;;;25.00;5.10;;;;;;;4.74;100.00;102854.31;5061152;28;20053;-83
2022/01/28 04:11:30;;;;;;;25.65;4.90;;;;;;;4.72;100.00;102854.22;4991482;28;20049;-82
2022/01/28 04:14:10;;;;;;;25.20;4.40;;;;;;;4.73;100.00;102847.31;5037991;28;20064;-84
2022/01/28 04:19:25;;;;;;;26.67;5.07;;;;;;;4.74;100.00;102854.31;5041770;28;20048;-81
2022/01/28 04:21:54;;;;;;;25.48;5.18;;;;;;;4.74;100.00;102869.97;5019716;28;20033;-82
2022/01/28 04:24:23;;;;;;;31.38;5.72;;;;;;;4.76;100.00;102856.19;5036048;28;20048;-82
2022/01/28 04:26:51;;;;;;;25.48;4.97;;;;;;;4.77;100.00;102862.34;5023157;28;20499;-81
2022/01/28 04:29:20;;;;;;;22.50;4.88;;;;;;;4.77;100.00;102850.16;5010794;28;20057;-83
2022/01/28 04:31:48;;;;;;;25.48;4.45;;;;;;;4.78;100.00;102862.44;5022159;28;20034;-81
2022/01/28 04:34:19;;;;;;;28.05;4.82;;;;;;;4.78;100.00;102871.97;4990729;28;20061;-82
2022/01/28 04:39:41;;;;;;;28.23;4.45;;;;;;;4.76;100.00;102884.03;5013304;28;20418;-83
2022/01/28 04:47:45;;;;;;;21.02;4.57;;;;;;;4.69;100.00;102901.06;5013414;28;20052;-82
2022/01/28 05:09:15;;;;;;;28.45;5.07;;;;;;;4.50;100.00;102948.66;5047300;28;20422;-83
2022/01/28 05:14:34;;;;;;;33.53;5.95;;;;;;;4.54;100.00;102958.47;5041469;28;20041;-82
2022/01/28 05:28:13;;;;;;;23.58;4.25;;;;;;;4.67;100.00;102966.25;4947676;28;20057;-81
2022/01/28 05:30:42;;;;;;;23.67;4.15;;;;;;;4.69;100.00;102954.19;5046164;28;20063;-82
2022/01/28 05:33:10;;;;;;;28.45;5.10;;;;;;;4.72;100.00;102961.28;5028206;28;20049;-79
2022/01/28 05:35:39;;;;;;;19.60;4.65;;;;;;;4.74;100.00;102954.44;5055389;28;20040;-80
2022/01/28 05:38:10;;;;;;;23.00;5.03;;;;;;;4.75;100.00;102973.66;5039606;28;20066;-79
2022/01/28 05:40:39;;;;;;;23.40;3.67;;;;;;;4.74;100.00;102969.22;5040818;28;20413;-80
2022/01/28 05:43:08;;;;;;;28.08;5.30;;;;;;;4.77;100.00;102977.25;5024209;28;20089;-80
2022/01/28 05:45:45;;;;;;;20.70;5.00;;;;;;;4.77;100.00;102988.59;5074152;28;20044;-79
2022/01/28 05:48:15;;;;;;;27.38;5.63;;;;;;;4.79;100.00;102978.25;5041985;28;20040;-81
2022/01/28 05:50:44;;;;;;;27.40;5.22;;;;;;;4.76;100.00;102992.00;5059505;28;20044;-79
2022/01/28 05:53:12;;;;;;;28.10;5.47;;;;;;;4.73;100.00;102993.56;5059677;28;20055;-81
2022/01/28 05:55:41;;;;;;;34.33;6.43;;;;;;;4.71;100.00;103005.59;5056915;28;20502;-80
2022/01/28 05:58:09;;;;;;;32.58;5.50;;;;;;;4.68;100.00;103014.16;5045967;28;20072;-80
2022/01/28 06:00:41;;;;;;;34.22;4.75;;;;;;;4.67;100.00;103007.16;5059822;28;20041;-81
2022/01/28 06:03:14;;;;;;;29.52;6.22;;;;;;;4.67;100.00;103014.97;5042309;28;20032;-82
2022/01/28 06:05:45;;;;;;;32.70;4.97;;;;;;;4.67;100.00;103014.97;5056094;28;20498;-82
2022/01/28 06:08:16;;;;;;;26.63;5.53;;;;;;;4.65;100.00;103017.50;5071221;28;20049;-80
2022/01/28 06:10:45;;;;;;;31.88;6.40;;;;;;;4.65;100.00;103022.72;5040534;28;20041;-80
2022/01/28 06:13:13;;;;;;;30.65;5.45;;;;;;;4.64;100.00;103031.34;5075270;28;20516;-81
2022/01/28 06:15:43;;;;;;;44.42;7.07;;;;;;;4.63;100.00;103039.06;5060556;28;20043;-81
2022/01/28 06:18:12;;;;;;;28.57;6.23;;;;;;;4.61;100.00;103046.84;5058471;28;20055;-80
2022/01/28 06:20:42;;;;;;;24.15;4.90;;;;;;;4.61;100.00;103053.75;5075832;28;20032;-80
2022/01/28 06:23:13;;;;;;;32.35;5.82;;;;;;;4.60;100.00;103060.69;5074792;28;20414;-81
2022/01/28 06:25:43;;;;;;;35.65;5.88;;;;;;;4.60;100.00;103051.97;5059184;28;20049;-81
2022/01/28 06:28:11;;;;;;;32.00;5.18;;;;;;;4.59;100.00;103051.03;5059231;28;20037;-82
2022/01/28 06:30:40;;;;;;;24.58;4.50;;;;;;;4.58;100.00;103053.56;5072205;28;20051;-81
2022/01/28 06:33:11;;;;;;;26.27;4.88;;;;;;;4.59;100.00;103061.47;5059868;28;20052;-81
2022/01/28 06:35:41;;;;;;;24.58;5.20;;;;;;;4.60;100.00;103063.31;5043900;28;20044;-79
2022/01/28 06:38:11;;;;;;;24.13;4.53;;;;;;;4.59;100.00;103052.75;5062815;28;20052;-81
2022/01/28 06:40:40;;;;;;;22.42;6.18;;;;;;;4.57;100.00;103068.31;5078321;28;20052;-81
2022/01/28 06:43:10;;;;;;;18.48;3.53;;;;;;;4.55;100.00;103072.53;5061413;28;20505;-80
2022/01/28 06:45:43;;;;;;;23.92;4.28;;;;;;;4.53;100.00;103076.78;5045328;28;20052;-80
2022/01/28 06:48:13;;;;;;;25.58;5.40;;;;;;;4.54;100.00;103072.44;5079509;28;20041;-80
2022/01/28 06:50:45;;;;;;;23.75;3.90;;;;;;;4.53;100.00;103081.09;5062720;28;20045;-81
2022/01/28 06:53:17;;;;;;;20.38;4.82;;;;;;;4.55;100.00;103075.16;5030437;28;20462;-82
2022/01/28 06:55:46;;;;;;;23.42;4.70;;;;;;;4.56;100.00;103092.66;5040028;28;20052;-81
2022/01/28 06:58:16;;;;;;;16.52;3.30;;;;;;;4.56;100.00;103100.47;5048569;28;20048;-80
2022/01/28 07:00:44;;;;;;;24.52;4.22;;;;;;;4.55;100.00;103098.66;5062762;28;20048;-81
2022/01/28 07:03:16;;;;;;;19.20;4.38;;;;;;;4.57;100.00;103104.88;5046273;28;20560;-81
2022/01/28 07:05:45;;;;;;;25.48;4.85;;;;;;;4.53;100.00;103102.88;5083252;28;20049;-81
2022/01/28 07:08:14;;;;;;;24.73;4.97;;;;;;;4.53;100.00;103094.16;5050922;28;20037;-80
2022/01/28 07:10:42;;;;;;;22.30;5.35;;;;;;;4.53;100.00;103099.38;5061658;28;20037;-80
2022/01/28 07:13:13;;;;;;;22.00;4.15;;;;;;;4.52;100.00;103108.94;5063175;28;20052;-81
2022/01/28 07:15:43;;;;;;;;;;;;;;;4.49;100.00;103108.72;5081981;28;20061;-81
2022/01/28 07:18:12;;;;;;;30.87;4.57;;;;;;;4.48;100.00;103113.03;5038881;28;19921;-81
2022/01/28 07:20:40;;;;;;;25.85;4.43;;;;;;;4.48;100.00;103115.66;5039740;28;20295;-81
2022/01/28 07:23:09;;;;;;;26.85;4.75;;;;;;;4.50;100.00;103113.16;5042436;28;20044;-81
2022/01/28 07:25:41;;;;;;;21.60;4.25;;;;;;;4.51;100.00;103120.16;5006418;28;20418;-80
2022/01/28 07:28:10;;;;;;;18.77;4.55;;;;;;;4.52;100.00;103114.16;5017349;28;20052;-80
2022/01/28 07:30:41;;;;;;;22.27;4.65;;;;;;;4.53;100.00;103108.09;5023751;28;20049;-80
2022/01/28 07:33:10;;;;;;;29.02;4.60;;;;;;;4.54;100.00;103115.16;5005422;28;20037;-81
2022/01/28 07:39:35;;;;;;;22.30;4.43;;;;;;;4.51;100.00;103130.59;4997755;28;20448;-81
2022/01/28 07:42:04;;;;;;;27.17;4.60;;;;;;;4.51;100.00;103134.94;4978101;28;20050;-81
2022/01/28 07:44:33;;;;;;;24.20;4.47;;;;;;;4.52;100.00;103139.34;4944466;28;20315;-81
2022/01/28 07:47:02;;;;;;;28.83;4.80;;;;;;;4.49;100.00;103135.72;4958595;28;20050;-82
2022/01/28 07:49:31;;;;;;;29.50;4.65;;;;;;;4.50;100.00;103144.47;5001915;28;20065;-80
2022/01/28 07:51:59;;;;;;;29.17;4.82;;;;;;;4.51;100.00;103140.16;4965031;28;20569;-81
2022/01/28 07:54:28;;;;;;;32.00;4.50;;;;;;;4.51;100.00;103150.59;4990869;28;20049;-80
2022/01/28 07:56:56;;;;;;;20.85;4.10;;;;;;;4.50;100.00;103154.94;4978982;28;20049;-80
2022/01/28 07:59:25;;;;;;;29.23;5.15;;;;;;;4.52;100.00;103155.00;4942351;28;20054;-79
2022/01/28 08:01:53;;;;;;;28.80;4.80;;;;;;;4.49;100.00;103164.44;4959829;28;20053;-80
2022/01/28 08:04:22;;;;;;;27.65;4.97;;;;;;;4.48;100.00;103161.75;5005695;28;20046;-79
2022/01/28 08:06:51;;;;;;;35.65;6.68;;;;;;;4.47;100.00;103157.31;4953095;28;20042;-79
2022/01/28 08:09:20;;;;;;;27.50;5.38;;;;;;;4.44;100.00;103152.81;4979849;28;20054;-80
2022/01/28 08:11:51;;;;;;;20.52;4.28;;;;;;;4.44;100.00;103158.03;4961239;28;20053;-80
2022/01/28 08:14:20;;;;;;;34.45;5.80;;;;;;;4.43;100.00;103171.88;5022872;28;20048;-81
2022/01/28 08:16:48;;;;;;;24.55;5.70;;;;;;;4.42;100.00;103171.78;5003647;28;20487;-81
2022/01/28 08:19:17;;;;;;;32.90;7.35;;;;;;;4.42;100.00;103175.31;5005949;28;20700;-80
2022/01/28 08:21:46;;;;;;;24.23;4.95;;;;;;;4.43;100.00;103184.03;5014706;28;20037;-80
2022/01/28 08:24:15;;;;;;;31.45;5.10;;;;;;;4.46;100.00;103189.44;5013371;28;20631;-80
2022/01/28 08:26:43;;;;;;;20.48;4.70;;;;;;;4.48;100.00;103186.16;5018678;28;20036;-80
2022/01/28 08:29:12;;;;;;;18.88;4.50;;;;;;;4.51;100.00;103177.59;5029280;28;20254;-81
2022/01/28 08:31:41;;;;;;;24.30;5.35;;;;;;;4.55;100.00;103183.94;4993766;28;20041;-80
2022/01/28 08:34:09;;;;;;;23.90;5.18;;;;;;;4.58;100.00;103198.09;5027373;28;20326;-80
2022/01/28 08:36:38;;;;;;;19.65;4.38;;;;;;;4.59;100.00;103202.50;5014577;28;20045;-80
2022/01/28 08:39:09;;;;;;;24.60;4.28;;;;;;;4.63;100.00;103220.22;4985600;28;20076;-80
2022/01/28 08:41:42;;;;;;;23.02;4.22;;;;;;;4.66;100.00;103209.03;5030192;28;20041;-80
2022/01/28 08:44:16;;;;;;;27.00;4.15;;;;;;;4.67;100.00;103209.16;5015618;28;20075;-81
2022/01/28 08:46:46;;;;;;;22.05;4.68;;;;;;;4.67;100.00;103203.03;4985180;28;20266;-80
2022/01/28 08:49:14;;;;;;;19.52;4.22;;;;;;;4.67;100.00;103221.31;5016141;28;20037;-80
2022/01/28 08:51:45;;;;;;;20.70;4.30;;;;;;;4.66;100.00;103227.31;5029512;28;20446;-81
2022/01/28 08:54:13;;;;;;;23.37;4.70;;;;;;;4.67;100.00;103221.31;5003146;28;20036;-81
2022/01/28 08:56:43;;;;;;;25.48;5.50;;;;;;;4.69;100.00;103217.09;5014901;28;20298;-81
2022/01/28 08:59:32;;;;;;;37.28;5.88;;;;;;;4.79;100.00;103219.47;5039132;28;20956;-82
2022/01/28 09:02:01;;;;;;;26.05;4.90;;;;;;;4.87;100.00;103204.28;4974056;28;20053;-81
2022/01/28 09:04:29;;;;;;;31.75;5.47;;;;;;;4.94;100.00;103210.84;5009566;28;20052;-81
2022/01/28 09:06:58;;;;;;;20.25;4.47;;;;;;;4.99;100.00;103219.84;5014851;28;20036;-82
2022/01/28 09:09:28;;;;;;;32.70;5.68;;;;;;;5.03;100.00;103232.34;4985930;28;20049;-81
2022/01/28 09:14:27;;;;;;;25.90;5.00;;;;;;;5.10;100.00;103242.34;5030296;28;20430;-81
2022/01/28 09:16:56;;;;;;;34.05;5.63;;;;;;;5.13;100.00;103246.88;5010328;28;20052;-80
2022/01/28 09:19:25;;;;;;;21.63;5.07;;;;;;;5.15;100.00;103248.78;5055167;28;20047;-80
2022/01/28 09:21:54;;;;;;;22.15;4.85;;;;;;;5.16;100.00;103261.06;5069179;28;20040;-80
2022/01/28 09:24:22;;;;;;;21.13;4.70;;;;;;;5.19;100.00;103268.19;5058753;28;20028;-80
2022/01/28 09:26:52;;;;;;;30.10;5.05;;;;;;;5.21;100.00;103269.19;5069034;28;20049;-80
2022/01/28 09:29:22;;;;;;;36.63;5.93;;;;;;;5.22;100.00;103281.47;5040016;28;20032;-80
2022/01/28 09:31:51;;;;;;;25.55;4.43;;;;;;;5.24;100.00;103278.13;5049277;28;20667;-82
2022/01/28 09:34:20;;;;;;;28.75;6.90;;;;;;;5.27;100.00;103280.94;5018849;28;20048;-80
2022/01/28 09:36:49;;;;;;;23.95;4.93;;;;;;;5.32;100.00;103281.22;5052607;28;20045;-81
2022/01/28 09:39:19;;;;;;;32.85;6.35;;;;;;;5.39;100.00;103279.91;5040442;28;20264;-80
2022/01/28 09:41:48;;;;;;;26.83;5.55;;;;;;;5.45;100.00;103278.59;5056699;28;20060;-81
2022/01/28 09:44:19;;;;;;;32.20;4.95;;;;;;;5.51;100.00;103278.06;5051684;28;20127;-81
2022/01/28 09:46:47;;;;;;;30.02;4.85;;;;;;;5.55;100.00;103271.31;5069204;28;20043;-81
2022/01/28 09:49:21;;;;;;;22.20;4.38;;;;;;;5.58;100.00;103281.97;5022302;28;20256;-80
2022/01/28 09:51:50;;;;;;;28.75;6.47;;;;;;;5.60;100.00;103288.22;5048958;28;20045;-80
2022/01/28 09:54:18;;;;;;;24.15;4.95;;;;;;;5.59;100.00;103284.66;5066546;28;20568;-81
2022/01/28 09:56:47;;;;;;;29.48;6.18;;;;;;;5.61;100.00;103287.38;5069313;28;20040;-81
2022/01/28 09:59:15;;;;;;;28.58;4.20;;;;;;;5.60;100.00;103303.91;5052811;28;20040;-81
2022/01/28 10:01:51;;;;;;;23.00;4.82;;;;;;;5.63;100.00;103304.06;5071422;28;20517;-81
2022/01/28 10:04:21;;;;;;;26.73;4.32;;;;;;;5.67;100.00;103303.47;5051977;28;20045;-80
2022/01/28 10:06:49;;;;;;;18.75;4.47;;;;;;;5.77;100.00;103311.09;5050372;28;20041;-81
2022/01/28 10:09:19;;;;;;;23.90;5.63;;;;;;;5.88;100.00;103309.16;5057189;28;20438;-81
2022/01/28 10:11:50;;;;;;;26.90;4.68;;;;;;;5.95;100.00;103303.50;5072799;28;20064;-81
2022/01/28 10:14:23;;;;;;;27.63;5.18;;;;;;;5.99;100.00;103295.03;5069623;28;20053;-82
2022/01/28 10:17:02;;;;;;;28.20;4.47;;;;;;;6.02;100.00;103302.16;5070086;28;20053;-80
2022/01/28 10:19:40;;;;;;;31.15;4.75;;;;;;;6.01;100.00;103311.75;5004855;28;20108;-81
2022/01/28 10:22:28;;;;;;;28.25;4.70;;;;;;;6.02;100.00;103320.50;5015720;28;20048;-82
2022/01/28 10:25:37;;;;;;;23.00;5.55;;;;;;;6.01;100.00;103327.44;5022746;28;20025;-81
2022/01/28 10:28:11;;;;;;;18.73;4.28;;;;;;;6.03;100.00;103341.53;5002688;28;20056;-82
2022/01/28 10:30:43;;;;;;;30.55;4.65;;;;;;;6.06;100.00;103335.56;5014259;28;20049;-81
2022/01/28 10:33:17;;;;;;;32.95;6.63;;;;;;;6.12;100.00;103340.28;4999041;28;20413;-82
2022/01/28 10:35:54;;;;;;;22.58;3.90;;;;;;;6.13;100.00;103337.75;5038747;28;20037;-82
2022/01/28 10:38:30;;;;;;;22.33;4.07;;;;;;;6.15;100.00;103341.38;5049902;28;20053;-80
2022/01/28 10:41:28;;;;;;;21.15;4.03;;;;;;;6.18;100.00;103341.56;5030414;28;20049;-81
2022/01/28 10:43:57;;;;;;;22.08;4.35;;;;;;;6.23;100.00;103333.97;4986892;28;20050;-81
2022/01/28 10:46:34;;;;;;;19.58;4.43;;;;;;;6.26;100.00;103323.72;5012957;28;20060;-81
2022/01/28 10:49:06;;;;;;;33.53;5.00;;;;;;;6.29;100.00;103322.97;5002295;28;20376;-81
2022/01/28 10:51:42;;;;;;;17.83;4.88;;;;;;;6.30;100.00;103319.56;5027301;28;20041;-82
2022/01/28 10:54:20;;;;;;;32.38;5.97;;;;;;;6.30;100.00;103320.47;4996954;28;20088;-82
2022/01/28 10:56:49;;;;;;;14.63;3.03;;;;;;;6.29;100.00;103318.63;5002169;28;20045;-80
2022/01/28 10:59:19;;;;;;;21.45;4.70;;;;;;;6.32;100.00;103312.69;5016398;28;20781;-82
2022/01/28 11:01:48;;;;;;;25.08;3.55;;;;;;;6.37;100.00;103311.25;5017631;28;20045;-81
2022/01/28 11:04:19;;;;;;;20.13;3.70;;;;;;;6.39;100.00;103315.78;4991037;28;20573;-81
2022/01/28 11:06:50;;;;;;;24.05;4.32;;;;;;;6.42;100.00;103309.81;4998795;28;20036;-82
2022/01/28 11:09:21;;;;;;;22.25;3.92;;;;;;;6.47;100.00;103305.75;5013703;28;20033;-81
2022/01/28 11:11:50;;;;;;;;;;;;;;;6.48;98.96;103299.69;5035295;28;20045;-80
2022/01/28 11:14:20;;;;;;;28.30;4.05;;;;;;;6.50;100.00;103290.19;5043249;28;19931;-81
2022/01/28 11:16:48;;;;;;;16.87;2.83;;;;;;;6.50;100.00;103291.91;5059388;28;20048;-80
2022/01/28 11:19:21;;;;;;;19.42;3.55;;;;;;;6.49;100.00;103290.13;5048895;28;20048;-81
2022/01/28 11:22:10;;;;;;;16.60;3.40;;;;;;;6.48;100.00;103288.31;5062543;28;20040;-82
2022/01/28 11:25:03;;;;;;;26.45;3.92;;;;;;;6.43;99.51;103288.06;5065973;28;20053;-82
2022/01/28 11:27:37;;;;;;;19.05;3.83;;;;;;;6.38;99.16;103293.00;5075663;28;20041;-82
2022/01/28 11:30:18;;;;;;;24.92;4.78;;;;;;;6.34;99.31;103293.63;5015843;28;20044;-81
2022/01/28 11:32:54;;;;;;;;;;;;;;;6.29;94.10;103304.66;5061769;28;20044;-81
2022/01/28 11:35:23;;;;;;;17.02;3.38;;;;;;;6.29;99.50;103297.69;5058445;28;20134;-80
2022/01/28 11:37:54;;;;;;;22.13;4.22;;;;;;;6.33;99.86;103302.31;5017793;28;20047;-80
2022/01/28 11:40:23;;;;;;;21.23;4.20;;;;;;;6.36;100.00;103302.50;5063223;28;20052;-80
2022/01/28 11:43:18;;;;;;;14.98;2.92;;;;;;;6.36;97.86;103312.06;5015928;28;20048;-80
2022/01/28 11:46:03;;;;;;;17.67;3.85;;;;;;;6.36;99.18;103301.59;5066319;28;20036;-80
2022/01/28 11:48:51;;;;;;;22.02;4.75;;;;;;;6.40;99.55;103294.00;5079720;28;20048;-80
2022/01/28 11:51:32;;;;;;;24.20;4.75;;;;;;;6.49;100.00;103288.41;5071054;28;20112;-80
2022/01/28 11:54:03;;;;;;;25.25;6.25;;;;;;;6.61;100.00;103276.00;5033631;28;20036;-80
2022/01/28 11:56:57;;;;;;;24.10;4.10;;;;;;;6.69;97.46;103276.50;5025362;28;20053;-80
2022/01/28 11:59:29;;;;;;;19.52;3.55;;;;;;;6.70;98.39;103265.19;5029291;28;20102;-79
2022/01/28 12:01:58;;;;;;;25.10;4.18;;;;;;;6.63;97.02;103269.19;5028172;28;20048;-79
2022/01/28 12:04:27;;;;;;;19.15;4.00;;;;;;;6.59;98.08;103263.66;5050191;28;20052;-79
2022/01/28 12:07:07;;;;;;;23.08;4.82;;;;;;;6.55;97.77;103259.06;5039670;28;20045;-80
2022/01/28 12:09:38;;;;;;;19.05;3.80;;;;;;;6.58;98.36;103264.47;5032654;28;20051;-79
2022/01/28 12:12:09;;;;;;;17.30;3.58;;;;;;;6.56;97.85;103271.31;5060568;28;20686;-79
2022/01/28 12:14:57;;;;;;;21.08;4.47;;;;;;;6.57;98.70;103279.28;5072019;28;20052;-79
2022/01/28 12:17:32;;;;;;;19.55;3.38;;;;;;;6.56;98.76;103274.88;5069368;28;20040;-79
2022/01/28 12:20:34;;;;;;;22.20;4.53;;;;;;;6.53;98.85;103264.19;5058067;28;20694;-82
2022/01/28 12:23:07;;;;;;;22.92;4.45;;;;;;;6.52;99.16;103264.09;5066712;28;20157;-79
2022/01/28 12:25:36;;;;;;;28.88;3.70;;;;;;;6.51;99.43;103259.69;5034463;28;20045;-80
2022/01/28 12:28:11;;;;;;;26.27;4.97;;;;;;;6.50;99.23;103256.16;5065270;28;20036;-82
2022/01/28 12:30:44;;;;;;;29.30;4.53;;;;;;;6.50;99.62;103252.63;5050460;28;20042;-79
2022/01/28 12:33:14;;;;;;;26.70;4.78;;;;;;;6.46;99.92;103242.78;5050724;28;20040;-79
2022/01/28 12:35:43;;;;;;;18.25;4.57;;;;;;;6.43;99.46;103233.06;5044656;28;20044;-80
2022/01/28 12:38:13;;;;;;;23.25;4.22;;;;;;;6.47;99.73;103228.91;5059671;28;20394;-79
2022/01/28 12:40:48;;;;;;;25.17;4.53;;;;;;;6.54;100.00;103231.03;5028280;28;20461;-79
2022/01/28 12:43:25;;;;;;;25.00;4.82;;;;;;;6.60;100.00;103237.53;5059768;28;20049;-79
2022/01/28 12:46:15;;;;;;;28.17;5.00;;;;;;;6.71;100.00;103242.50;5053007;28;20410;-79
2022/01/28 12:48:52;;;;;;;24.25;4.38;;;;;;;6.78;100.00;103231.53;5049577;28;20037;-79
2022/01/28 12:51:24;;;;;;;24.45;3.78;;;;;;;6.79;99.00;103238.59;5029648;28;20444;-79
2022/01/28 12:53:57;;;;;;;21.73;4.25;;;;;;;6.81;98.14;103231.72;5071660;28;20048;-79
2022/01/28 12:56:34;;;;;;;24.05;3.50;;;;;;;6.85;98.44;103231.09;4999321;28;20053;-80
2022/01/28 12:59:03;;;;;;;20.58;3.25;;;;;;;6.83;98.51;103231.00;5058709;28;20043;-80
2022/01/28 13:01:33;;;;;;;23.27;3.95;;;;;;;6.81;97.49;103231.72;5065000;28;20048;-78
2022/01/28 13:04:12;;;;;;;16.77;3.25;;;;;;;6.76;97.67;103218.34;5072961;28;20045;-79
2022/01/28 13:09:23;;;;;;;17.73;3.63;;;;;;;6.64;97.68;103213.31;5030689;28;20530;-81
2022/01/28 13:11:57;;;;;;;24.77;3.53;;;;;;;6.61;97.18;103222.72;5035507;28;20509;-80
2022/01/28 13:14:32;;;;;;;24.77;3.65;;;;;;;6.56;97.64;103221.53;5066915;28;20036;-80
2022/01/28 13:17:06;;;;;;;28.05;4.25;;;;;;;6.52;97.22;103216.94;5050727;28;20057;-79
2022/01/28 13:19:35;;;;;;;20.55;3.40;;;;;;;6.51;98.55;103202.97;5029959;28;20041;-78
2022/01/28 13:22:04;;;;;;;24.33;4.45;;;;;;;6.55;99.34;103218.03;4984791;28;20301;-80
2022/01/28 13:24:33;;;;;;;22.25;5.10;;;;;;;6.59;99.39;103220.00;5018067;28;20068;-80
2022/01/28 13:27:08;;;;;;;25.63;4.40;;;;;;;6.56;97.47;103214.59;4993129;28;20045;-80
2022/01/28 13:29:39;;;;;;;23.80;4.15;;;;;;;6.49;96.96;103222.03;5025775;28;20040;-81